Time;durP1;ratioP1;P1;durP2;ratioP2;P2;SDS_P1;SDS_P2;PMS_P1;PMS_P2;Temp;Humidity;BMP_temperature;BMP_pressure;BME280_temperature;BME280_humidity;BME280_pressure;Samples;Min_cycle;Max_cycle;Signal;HPM_P1;HPM_P2
2023/02/08 00:01:50;;;;;;;49.95;25.10;;;0.40;2201.60;;;;;;5050262;28;20478;-61
2023/02/08 00:04:16;;;;;;;66.25;30.85;;;0.30;2201.60;;;;;;5049826;28;20028;-57
2023/02/08 00:06:41;;;;;;;537.10;274.95;;;0.40;2201.60;;;;;;5050063;28;20115;-59
2023/02/08 00:09:07;;;;;;;73.07;36.00;;;0.40;2201.60;;;;;;5050636;28;20418;-57
2023/02/08 00:11:34;;;;;;;136.32;70.45;;;0.50;2201.60;;;;;;5050344;28;20119;-57
2023/02/08 00:13:59;;;;;;;146.98;69.72;;;0.40;2201.60;;;;;;5050393;28;20482;-63
2023/02/08 00:16:25;;;;;;;38.80;21.15;;;0.70;2201.60;;;;;;5050419;28;20058;-55
2023/02/08 00:18:51;;;;;;;40.00;22.83;;;0.40;2201.60;;;;;;5050432;28;20540;-58
2023/02/08 00:21:17;;;;;;;68.57;32.70;;;0.50;2201.60;;;;;;5050198;28;20068;-59
2023/02/08 00:23:43;;;;;;;36.03;19.90;;;0.40;2201.60;;;;;;5050304;28;20091;-57
2023/02/08 00:26:10;;;;;;;37.88;22.40;;;0.40;2201.60;;;;;;5050266;28;20128;-57
2023/02/08 00:28:35;;;;;;;30.42;16.38;;;0.20;2201.60;;;;;;5050071;28;20021;-58
2023/02/08 00:31:01;;;;;;;42.42;20.27;;;0.20;2201.60;;;;;;5050440;28;20025;-57
2023/02/08 00:33:27;;;;;;;101.15;51.65;;;0.30;2201.60;;;;;;5050248;28;20039;-59
2023/02/08 00:36:00;;;;;;;27.73;16.33;;;0.20;2201.60;;;;;;5049972;28;20467;-57
2023/02/08 00:38:27;;;;;;;31.58;19.38;;;0.10;2201.60;;;;;;5050066;28;20479;-56
2023/02/08 00:40:52;;;;;;;35.17;17.73;;;0.10;2201.60;;;;;;5050101;28;20036;-57
2023/02/08 00:43:18;;;;;;;94.75;44.22;;;0.10;2201.60;;;;;;5050197;28;20021;-56
2023/02/08 00:45:44;;;;;;;32.30;18.38;;;0.10;2201.60;;;;;;5050143;28;20140;-56
2023/02/08 00:48:09;;;;;;;37.40;20.25;;;0.10;2201.60;;;;;;5050194;28;20025;-59
2023/02/08 00:50:35;;;;;;;43.13;20.83;;;0.30;2201.60;;;;;;5049719;28;20135;-58
2023/02/08 00:53:01;;;;;;;42.90;20.85;;;0.30;2201.60;;;;;;5050010;28;20095;-59
2023/02/08 00:55:26;;;;;;;32.83;17.42;;;0.40;2201.60;;;;;;5051913;28;20045;-60
2023/02/08 00:57:52;;;;;;;45.28;21.55;;;0.20;2201.60;;;;;;5054106;28;20041;-55
2023/02/08 01:00:18;;;;;;;27.77;16.85;;;0.20;2201.60;;;;;;5054174;28;20033;-57
2023/02/08 01:02:43;;;;;;;30.92;17.15;;;0.10;2201.60;;;;;;5054172;28;20108;-57
2023/02/08 01:05:09;;;;;;;39.95;20.23;;;0.30;2201.60;;;;;;5054079;28;20045;-57
2023/02/08 01:07:38;;;;;;;39.72;19.52;;;0.40;2201.60;;;;;;5053831;28;20029;-59
2023/02/08 01:10:05;;;;;;;80.10;41.17;;;0.40;2201.60;;;;;;5053675;28;20390;-58
2023/02/08 01:12:31;;;;;;;54.70;26.70;;;0.30;2201.60;;;;;;5053625;28;20025;-63
2023/02/08 01:14:56;;;;;;;35.28;20.60;;;0.10;2201.60;;;;;;5053365;28;20025;-64
2023/02/08 01:17:22;;;;;;;69.50;32.08;;;0.10;2201.60;;;;;;5053573;28;20028;-67
2023/02/08 01:19:48;;;;;;;27.65;15.05;;;0.20;2201.60;;;;;;5053256;28;20025;-57
2023/02/08 01:22:13;;;;;;;32.75;16.98;;;0.30;2201.60;;;;;;5053015;28;20146;-59
2023/02/08 01:24:39;;;;;;;33.88;17.95;;;0.30;2201.60;;;;;;5053269;28;20116;-67
2023/02/08 01:27:05;;;;;;;29.55;15.35;;;0.30;2201.60;;;;;;5053114;28;20029;-57
2023/02/08 01:29:31;;;;;;;28.98;14.80;;;0.10;2201.60;;;;;;5053299;28;20388;-60
2023/02/08 01:31:56;;;;;;;26.58;14.68;;;0.20;2201.60;;;;;;5053174;28;20028;-58
2023/02/08 01:34:22;;;;;;;28.13;15.48;;;0.20;2201.60;;;;;;5053145;28;20029;-60
2023/02/08 01:36:48;;;;;;;26.08;13.50;;;0.00;2201.60;;;;;;5053260;28;20033;-59
2023/02/08 01:39:13;;;;;;;123.05;49.58;;;0.10;2201.60;;;;;;5052882;28;20507;-62
2023/02/08 01:41:43;;;;;;;82.68;36.08;;;0.10;2201.60;;;;;;5053111;28;20060;-61
2023/02/08 01:44:16;;;;;;;29.42;15.48;;;0.10;2201.60;;;;;;5052930;28;20020;-58
2023/02/08 01:46:43;;;;;;;39.35;18.13;;;0.20;2201.60;;;;;;5052914;28;20478;-58
2023/02/08 01:49:24;;;;;;;70.30;27.23;;;0.30;2201.60;;;;;;5053084;28;20219;-58
2023/02/08 01:51:58;;;;;;;183.88;72.35;;;0.20;2201.60;;;;;;5037155;28;20072;-57
2023/02/08 01:54:27;;;;;;;51.03;22.33;;;0.20;2201.60;;;;;;5032966;28;20029;-62
2023/02/08 01:56:53;;;;;;;294.48;124.75;;;0.10;2201.60;;;;;;5032837;28;20037;-59
2023/02/08 01:59:25;;;;;;;128.70;58.28;;;0.10;2201.60;;;;;;5032943;28;20026;-61
2023/02/08 02:01:53;;;;;;;122.03;50.55;;;0.20;2201.60;;;;;;5032824;28;20505;-61
2023/02/08 02:04:19;;;;;;;24.88;14.05;;;0.30;2201.60;;;;;;5032837;28;20025;-58
2023/02/08 02:06:50;;;;;;;32.97;16.88;;;0.30;2201.60;;;;;;5031206;28;20041;-60
2023/02/08 02:09:33;;;;;;;406.10;170.57;;;0.40;2201.60;;;;;;5032544;28;20060;-58
2023/02/08 02:11:59;;;;;;;180.07;79.18;;;0.30;2201.60;;;;;;5032958;28;20084;-58
2023/02/08 02:14:26;;;;;;;57.05;24.15;;;0.30;2201.60;;;;;;5032567;28;20026;-65
2023/02/08 02:16:51;;;;;;;28.63;14.68;;;0.50;2201.60;;;;;;5032675;28;20555;-56
2023/02/08 02:19:47;;;;;;;26.63;14.48;;;0.40;2201.60;;;;;;5032382;28;20076;-59
2023/02/08 02:22:31;;;;;;;26.60;14.85;;;0.40;2201.60;;;;;;5032117;28;20034;-59
2023/02/08 02:25:29;;;;;;;46.53;22.35;;;0.30;2201.60;;;;;;5032458;28;20113;-56
2023/02/08 02:28:29;;;;;;;33.88;17.83;;;0.30;2201.60;;;;;;5032341;28;20033;-58
2023/02/08 02:31:25;;;;;;;26.73;14.63;;;0.40;2201.60;;;;;;5032113;28;20025;-59
2023/02/08 02:33:57;;;;;;;29.42;17.23;;;0.40;2201.60;;;;;;5014555;28;20120;-57
2023/02/08 02:36:31;;;;;;;34.08;16.60;;;0.50;2201.60;;;;;;5031924;28;20475;-57
2023/02/08 02:39:12;;;;;;;31.20;16.75;;;0.30;2201.60;;;;;;5032243;28;20030;-60
2023/02/08 02:45:19;;;;;;;27.08;14.73;;;0.50;2201.60;;;;;;4951634;29;20138;-57
2023/02/08 02:48:16;;;;;;;26.35;14.35;;;0.40;2201.60;;;;;;5031965;28;20029;-59
2023/02/08 02:50:49;;;;;;;26.88;14.07;;;0.30;2201.60;;;;;;5031587;28;20042;-61
2023/02/08 02:53:22;;;;;;;32.15;14.82;;;0.20;2201.60;;;;;;5031566;28;20035;-57
2023/02/08 02:55:56;;;;;;;32.65;18.60;;;0.10;2201.60;;;;;;5031867;28;20021;-56
2023/02/08 02:58:22;;;;;;;;;;;12.90;2201.60;;;;;;5032352;28;20018;-57
2023/02/08 03:00:56;;;;;;;39.47;20.17;;;0.20;2201.60;;;;;;5031804;28;20000;-56
2023/02/08 03:03:24;;;;;;;136.52;62.15;;;0.20;2201.60;;;;;;5031801;28;20053;-57
2023/02/08 03:05:53;;;;;;;61.97;30.00;;;0.20;2201.60;;;;;;5031448;28;20038;-56
2023/02/08 03:09:06;;;;;;;277.98;118.80;;;0.30;2201.60;;;;;;5031765;28;20036;-57
2023/02/08 03:11:35;;;;;;;223.18;108.10;;;0.30;2201.60;;;;;;4951326;28;20465;-57
2023/02/08 03:14:08;;;;;;;81.53;34.80;;;0.60;2201.60;;;;;;4951466;29;20031;-57
2023/02/08 03:16:52;;;;;;;37.50;20.50;;;0.50;2201.60;;;;;;4951169;29;20038;-57
2023/02/08 03:19:46;;;;;;;25.42;15.60;;;0.70;2201.60;;;;;;4951023;28;20035;-57
2023/02/08 03:22:27;;;;;;;45.83;24.73;;;0.60;2201.60;;;;;;4950908;29;20102;-58
2023/02/08 03:25:08;;;;;;;50.17;25.90;;;0.60;2201.60;;;;;;4950840;29;20035;-57
2023/02/08 03:27:56;;;;;;;39.13;18.77;;;0.60;2201.60;;;;;;4951064;29;20034;-57
2023/02/08 03:30:37;;;;;;;59.05;28.85;;;0.60;2201.60;;;;;;4951097;29;20154;-56
2023/02/08 03:33:14;;;;;;;55.78;26.40;;;0.50;2201.60;;;;;;4950858;29;20517;-57
2023/02/08 03:35:49;;;;;;;88.70;40.67;;;0.40;2201.60;;;;;;4950914;29;20039;-56
2023/02/08 03:38:38;;;;;;;142.23;60.08;;;0.50;2201.60;;;;;;4950847;28;20453;-56
2023/02/08 03:41:07;;;;;;;110.13;45.88;;;0.60;2201.60;;;;;;4950763;28;20027;-57
2023/02/08 03:43:37;;;;;;;31.50;17.92;;;0.50;2201.60;;;;;;5030800;28;20109;-56
2023/02/08 03:46:24;;;;;;;33.22;17.65;;;0.60;2201.60;;;;;;5030611;28;20099;-57
2023/02/08 03:49:02;;;;;;;91.80;37.25;;;0.50;2201.60;;;;;;5030965;28;20025;-57
2023/02/08 03:51:29;;;;;;;53.78;25.05;;;0.60;2201.60;;;;;;5030531;28;20085;-57
2023/02/08 03:53:59;;;;;;;58.42;23.50;;;0.50;2201.60;;;;;;5030812;28;20071;-57
2023/02/08 03:56:48;;;;;;;46.13;22.15;;;0.30;2201.60;;;;;;5030647;28;20379;-57
2023/02/08 03:59:22;;;;;;;58.88;28.83;;;0.30;2201.60;;;;;;5030899;28;20434;-57
2023/02/08 04:01:49;;;;;;;;;;;0.20;2201.60;;;;;;5031247;28;20021;-57
2023/02/08 04:04:17;;;;;;;23.65;14.40;;;0.30;2201.60;;;;;;5030727;28;19944;-57
2023/02/08 04:06:43;;;;;;;30.30;16.40;;;0.10;2201.60;;;;;;5030634;28;20083;-57
2023/02/08 04:09:09;;;;;;;45.35;24.83;;;0.20;2201.60;;;;;;5030692;28;20025;-56
2023/02/08 04:11:35;;;;;;;75.60;33.50;;;0.20;2201.60;;;;;;5030706;28;20435;-57
2023/02/08 04:14:01;;;;;;;65.95;29.25;;;0.20;2201.60;;;;;;5030802;28;20056;-57
2023/02/08 04:16:26;;;;;;;55.10;26.80;;;0.10;2201.60;;;;;;5030461;28;20039;-57
2023/02/08 04:18:52;;;;;;;39.58;19.60;;;0.20;2201.60;;;;;;5030521;28;20034;-57
2023/02/08 04:21:18;;;;;;;36.88;18.55;;;0.30;2201.60;;;;;;5030294;28;20037;-57
2023/02/08 04:23:44;;;;;;;34.05;18.35;;;0.30;2201.60;;;;;;5030394;28;20151;-56
2023/02/08 04:26:09;;;;;;;24.92;14.52;;;0.30;2201.60;;;;;;5030378;28;20499;-56
2023/02/08 04:28:35;;;;;;;43.40;23.02;;;0.30;2201.60;;;;;;5030425;28;20076;-60
2023/02/08 04:31:01;;;;;;;22.83;12.95;;;0.40;2201.60;;;;;;5033700;28;20036;-57
2023/02/08 04:33:26;;;;;;;23.85;13.30;;;0.10;2201.60;;;;;;5034521;28;20612;-57
2023/02/08 04:35:52;;;;;;;42.72;20.05;;;0.00;2201.60;;;;;;5034508;28;20029;-56
2023/02/08 04:38:18;;;;;;;35.50;15.57;;;0.20;2201.60;;;;;;5034286;28;20108;-59
2023/02/08 04:40:43;;;;;;;27.23;14.15;;;0.10;2201.60;;;;;;5034174;28;20021;-57
2023/02/08 04:43:09;;;;;;;22.88;12.82;;;0.20;2201.60;;;;;;5034296;28;20072;-56
2023/02/08 04:45:35;;;;;;;32.53;17.73;;;0.00;2201.60;;;;;;5034160;28;20045;-57
2023/02/08 04:48:01;;;;;;;27.02;14.27;;;0.10;2201.60;;;;;;5034446;28;20061;-56
2023/02/08 04:50:27;;;;;;;34.22;17.50;;;0.10;2201.60;;;;;;5033852;28;20626;-57
2023/02/08 04:52:52;;;;;;;28.27;15.10;;;0.30;2201.60;;;;;;5033938;28;20439;-58
2023/02/08 04:55:18;;;;;;;94.20;44.15;;;0.30;2201.60;;;;;;5034213;28;20033;-57
2023/02/08 04:57:44;;;;;;;26.92;14.77;;;0.30;2201.60;;;;;;5033867;28;20084;-56
2023/02/08 05:00:10;;;;;;;37.15;22.00;;;0.20;2201.60;;;;;;5034090;28;20112;-56
2023/02/08 05:02:36;;;;;;;37.28;16.88;;;0.30;2201.60;;;;;;5016242;28;20375;-56
2023/02/08 05:05:01;;;;;;;27.45;15.07;;;0.30;2201.60;;;;;;5033809;28;20086;-58
2023/02/08 05:07:27;;;;;;;24.73;14.75;;;0.10;2201.60;;;;;;5033981;28;20029;-57
2023/02/08 05:09:53;;;;;;;47.35;23.58;;;0.20;2201.60;;;;;;5033421;28;20029;-56
2023/02/08 05:12:18;;;;;;;26.80;15.10;;;0.20;2201.60;;;;;;5033953;28;20053;-56
2023/02/08 05:14:44;;;;;;;25.75;13.85;;;0.00;2201.60;;;;;;5033644;28;20029;-58
2023/02/08 05:17:10;;;;;;;29.48;14.88;;;0.00;2201.60;;;;;;5033919;28;20479;-56
2023/02/08 05:19:35;;;;;;;34.03;18.35;;;0.10;2201.60;;;;;;5033662;28;20468;-57
2023/02/08 05:22:01;;;;;;;26.25;15.13;;;0.00;2201.60;;;;;;5033274;28;20036;-61
2023/02/08 05:24:27;;;;;;;24.63;15.10;;;0.00;2201.60;;;;;;5033394;28;20495;-57
2023/02/08 05:26:52;;;;;;;22.60;14.50;;;0.10;2201.60;;;;;;5033161;28;20049;-56
2023/02/08 05:29:18;;;;;;;30.27;15.88;;;0.10;2201.60;;;;;;5033473;28;20029;-56
2023/02/08 05:31:44;;;;;;;27.83;15.98;;;0.10;2201.60;;;;;;5033346;28;20039;-58
2023/02/08 05:34:11;;;;;;;25.75;14.63;;;0.20;2201.60;;;;;;5033619;28;20021;-56
2023/02/08 05:36:37;;;;;;;24.85;14.40;;;0.20;2201.60;;;;;;5032976;28;20071;-56
2023/02/08 05:39:03;;;;;;;26.80;14.88;;;0.10;2201.60;;;;;;5033276;28;20029;-56
2023/02/08 05:41:29;;;;;;;22.05;13.15;;;0.10;2201.60;;;;;;5033025;28;20467;-56
2023/02/08 05:43:55;;;;;;;29.85;16.35;;;0.20;2201.60;;;;;;5032896;28;20032;-57
2023/02/08 05:46:20;;;;;;;32.35;17.83;;;0.30;2201.60;;;;;;5033118;28;20042;-57
2023/02/08 05:48:46;;;;;;;34.58;18.15;;;0.40;2201.60;;;;;;5032832;28;20018;-55
2023/02/08 05:51:12;;;;;;;40.63;20.67;;;0.30;2201.60;;;;;;5032823;28;20068;-61
2023/02/08 05:53:38;;;;;;;34.60;18.60;;;0.30;2201.60;;;;;;5032684;28;20033;-56
2023/02/08 05:56:04;;;;;;;53.83;27.38;;;0.40;2201.60;;;;;;5032725;28;20087;-56
2023/02/08 05:58:30;;;;;;;44.03;26.35;;;0.50;2201.60;;;;;;5033054;28;20460;-57
2023/02/08 06:00:55;;;;;;;48.45;26.55;;;0.70;2201.60;;;;;;5032729;28;20037;-57
2023/02/08 06:03:21;;;;;;;47.60;25.80;;;0.60;2201.60;;;;;;5032996;28;20053;-56
2023/02/08 06:05:47;;;;;;;48.22;27.55;;;0.50;2201.60;;;;;;5032536;28;20037;-57
2023/02/08 06:08:13;;;;;;;46.42;24.88;;;0.50;2201.60;;;;;;5032611;28;20129;-57
2023/02/08 06:10:39;;;;;;;44.83;22.90;;;0.60;2201.60;;;;;;5032841;28;20029;-57
2023/02/08 06:13:04;;;;;;;42.28;24.42;;;0.50;2201.60;;;;;;5032403;28;20037;-58
2023/02/08 06:15:30;;;;;;;48.13;22.52;;;0.60;2201.60;;;;;;5032769;28;20032;-57
2023/02/08 06:17:56;;;;;;;37.30;20.08;;;0.50;2201.60;;;;;;5032565;28;20368;-56
2023/02/08 06:20:22;;;;;;;32.78;18.20;;;0.10;2201.60;;;;;;5032576;28;20032;-57
2023/02/08 06:22:47;;;;;;;32.38;18.35;;;0.00;2201.60;;;;;;5032235;28;20037;-57
2023/02/08 06:25:13;;;;;;;35.35;20.27;;;0.10;2201.60;;;;;;5032240;28;20079;-57
2023/02/08 06:27:39;;;;;;;30.73;18.45;;;0.30;2201.60;;;;;;5032481;28;20025;-57
2023/02/08 06:30:05;;;;;;;31.10;19.88;;;0.30;2201.60;;;;;;5032100;28;20029;-59
2023/02/08 06:32:31;;;;;;;32.75;21.25;;;0.70;2201.60;;;;;;5032136;28;20028;-60
2023/02/08 06:34:57;;;;;;;37.63;20.65;;;0.50;2201.60;;;;;;5031711;28;20112;-56
2023/02/08 06:37:22;;;;;;;34.42;21.35;;;0.70;2201.60;;;;;;5032028;28;20472;-57
2023/02/08 06:39:48;;;;;;;34.03;20.10;;;0.50;2201.60;;;;;;5032142;28;20040;-56
2023/02/08 06:42:14;;;;;;;32.17;19.38;;;0.50;2201.60;;;;;;5031860;28;20036;-56
2023/02/08 06:44:39;;;;;;;33.85;20.38;;;0.50;2201.60;;;;;;5032318;28;20464;-57
2023/02/08 06:47:05;;;;;;;35.28;20.05;;;0.70;2201.60;;;;;;5031891;28;20045;-56
2023/02/08 06:49:31;;;;;;;35.95;19.50;;;25.70;2201.60;;;;;;5032109;28;20025;-56
2023/02/08 06:51:56;;;;;;;37.20;20.75;;;25.70;2201.60;;;;;;5031111;28;20138;-57
2023/02/08 06:54:22;;;;;;;40.17;22.90;;;25.60;2201.60;;;;;;5031684;28;20468;-57
2023/02/08 06:56:48;;;;;;;37.80;23.23;;;25.70;2201.60;;;;;;5031893;28;20138;-59
2023/02/08 06:59:13;;;;;;;37.70;20.48;;;25.60;2201.60;;;;;;5031607;28;20026;-60
2023/02/08 07:01:39;;;;;;;33.80;20.55;;;0.90;2201.60;;;;;;5031673;28;20459;-59
2023/02/08 07:04:05;;;;;;;32.72;18.58;;;0.90;2201.60;;;;;;5031653;28;20034;-61
2023/02/08 07:06:31;;;;;;;33.13;19.05;;;0.70;2201.60;;;;;;5031570;28;20068;-60
2023/02/08 07:08:57;;;;;;;35.45;19.25;;;0.60;2201.60;;;;;;5031339;28;20029;-61
2023/02/08 07:11:22;;;;;;;46.72;26.92;;;0.50;2201.60;;;;;;5031532;28;20207;-61
2023/02/08 07:13:49;;;;;;;33.40;19.90;;;0.50;2201.60;;;;;;5031521;28;20419;-61
2023/02/08 07:16:17;;;;;;;39.65;23.17;;;0.50;2201.60;;;;;;5031281;28;20029;-61
2023/02/08 07:18:42;;;;;;;35.25;19.90;;;0.50;2201.60;;;;;;5031484;28;20369;-61
2023/02/08 07:21:10;;;;;;;38.38;20.70;;;0.60;2201.60;;;;;;5031425;28;20090;-60
2023/02/08 07:23:37;;;;;;;41.33;23.67;;;0.60;2201.60;;;;;;5031109;28;20026;-60
2023/02/08 07:26:06;;;;;;;37.55;22.30;;;0.80;2201.60;;;;;;5031044;28;20038;-61
2023/02/08 07:28:32;;;;;;;42.97;23.73;;;0.70;2201.60;;;;;;5031116;28;20021;-60
2023/02/08 07:30:57;;;;;;;39.38;22.92;;;0.80;2201.60;;;;;;5031362;28;20040;-61
2023/02/08 07:33:24;;;;;;;42.38;21.75;;;0.80;2201.60;;;;;;5031021;28;20029;-61
2023/02/08 07:35:50;;;;;;;50.30;29.20;;;0.70;2201.60;;;;;;5031250;28;20029;-61
2023/02/08 07:38:17;;;;;;;46.40;27.27;;;25.60;2201.60;;;;;;5030992;28;20440;-61
2023/02/08 07:40:43;;;;;;;37.25;21.98;;;25.80;2201.60;;;;;;5031168;28;20383;-62
2023/02/08 07:43:09;;;;;;;37.92;21.48;;;26.00;2201.60;;;;;;5031082;28;20029;-62
2023/02/08 07:45:37;;;;;;;39.30;23.90;;;25.90;2201.60;;;;;;5030858;28;20115;-60
2023/02/08 07:48:03;;;;;;;31.50;21.13;;;26.20;2201.60;;;;;;5029241;28;20037;-61
2023/02/08 07:50:28;;;;;;;35.20;20.75;;;26.30;2201.60;;;;;;5028623;28;20111;-61
2023/02/08 07:52:54;;;;;;;38.10;20.23;;;25.90;2201.60;;;;;;5028409;28;20434;-60
2023/02/08 07:55:20;;;;;;;40.88;22.85;;;25.70;2201.60;;;;;;5028650;28;20041;-60
2023/02/08 07:57:47;;;;;;;33.92;19.60;;;25.70;2201.60;;;;;;5028649;28;20057;-60
2023/02/08 08:00:15;;;;;;;38.33;21.08;;;25.60;2201.60;;;;;;5028703;28;20036;-61
2023/02/08 08:02:41;;;;;;;35.97;22.02;;;0.90;2201.60;;;;;;5028514;28;20030;-61
2023/02/08 08:05:07;;;;;;;41.33;23.70;;;25.80;2201.60;;;;;;5027603;28;20029;-61
2023/02/08 08:07:33;;;;;;;46.63;27.75;;;25.70;2201.60;;;;;;5028372;28;20037;-62
2023/02/08 08:09:59;;;;;;;54.00;35.03;;;25.80;2201.60;;;;;;5028540;28;20498;-61
2023/02/08 08:12:24;;;;;;;36.00;21.55;;;25.80;2201.60;;;;;;5028443;28;20467;-61
2023/02/08 08:14:51;;;;;;;44.15;27.05;;;26.00;2201.60;;;;;;5027850;28;20486;-61
2023/02/08 08:17:17;;;;;;;42.47;23.77;;;25.90;2201.60;;;;;;5028447;28;20471;-61
2023/02/08 08:19:43;;;;;;;50.15;26.58;;;26.00;2201.60;;;;;;5030568;28;20071;-60
2023/02/08 08:22:09;;;;;;;38.08;22.20;;;25.80;2201.60;;;;;;5030483;28;20493;-59
2023/02/08 08:24:35;;;;;;;147.90;85.95;;;26.10;2201.60;;;;;;5030181;28;20035;-60
2023/02/08 08:27:05;;;;;;;41.03;24.42;;;26.00;2201.60;;;;;;5030396;28;20037;-61
2023/02/08 08:29:32;;;;;;;35.72;21.20;;;26.10;2201.60;;;;;;5030482;28;20018;-59
2023/02/08 08:31:58;;;;;;;35.40;22.38;;;25.90;2201.60;;;;;;5030425;28;20040;-61
2023/02/08 08:34:28;;;;;;;39.90;23.52;;;26.20;2201.60;;;;;;5030337;28;20022;-61
2023/02/08 08:37:03;;;;;;;41.28;24.05;;;26.10;2201.60;;;;;;5030301;28;20112;-60
2023/02/08 08:39:29;;;;;;;45.00;25.20;;;26.10;2201.60;;;;;;5028567;28;20745;-60
2023/02/08 08:41:59;;;;;;;39.85;22.92;;;26.20;2201.60;;;;;;5027876;28;20033;-61
2023/02/08 08:44:25;;;;;;;49.17;26.92;;;26.40;2201.60;;;;;;5027959;28;20450;-60
2023/02/08 08:46:55;;;;;;;37.58;21.45;;;26.50;2201.60;;;;;;5010898;28;20041;-60
2023/02/08 08:49:21;;;;;;;44.45;28.02;;;51.30;2227.20;;;;;;5028090;28;20030;-60
2023/02/08 08:51:47;;;;;;;43.08;24.98;;;51.30;2227.20;;;;;;5027729;28;20076;-60
2023/02/08 08:54:13;;;;;;;43.30;27.02;;;51.50;2227.20;;;;;;5027752;28;20479;-61
2023/02/08 08:56:38;;;;;;;45.35;25.70;;;51.50;2227.20;;;;;;5028048;28;20475;-61
2023/02/08 08:59:04;;;;;;;44.35;27.17;;;51.50;2227.20;;;;;;5027775;28;20460;-60
2023/02/08 09:01:30;;;;;;;46.22;26.30;;;51.20;2227.20;;;;;;5028185;28;20075;-60
2023/02/08 09:03:55;;;;;;;44.33;26.02;;;26.50;2201.60;;;;;;5027919;28;20086;-60
2023/02/08 09:06:21;;;;;;;41.83;26.75;;;26.40;2201.60;;;;;;5027533;28;20114;-61
2023/02/08 09:08:47;;;;;;;53.45;30.73;;;26.40;2201.60;;;;;;5027728;28;20022;-61
2023/02/08 09:11:14;;;;;;;45.08;26.02;;;26.50;2201.60;;;;;;5028405;28;20028;-60
2023/02/08 09:13:40;;;;;;;48.97;31.58;;;26.40;2201.60;;;;;;5030147;28;20088;-61
2023/02/08 09:16:09;;;;;;;44.88;25.23;;;26.20;2201.60;;;;;;5031468;28;20079;-60
2023/02/08 09:18:34;;;;;;;45.67;24.38;;;26.20;2201.60;;;;;;5033715;28;20032;-61
2023/02/08 09:21:08;;;;;;;51.50;32.42;;;26.00;2201.60;;;;;;5033744;28;20029;-60
2023/02/08 09:23:34;;;;;;;53.22;27.20;;;26.30;2201.60;;;;;;5033275;28;20045;-61
2023/02/08 09:26:11;;;;;;;38.92;22.02;;;26.40;2201.60;;;;;;5033391;28;20092;-60
2023/02/08 09:28:38;;;;;;;47.05;25.88;;;26.50;2201.60;;;;;;5033717;28;20101;-61
2023/02/08 09:31:07;;;;;;;38.78;22.98;;;26.40;2201.60;;;;;;5033297;28;20025;-62
2023/02/08 09:33:33;;;;;;;39.47;23.90;;;26.30;2201.60;;;;;;5033355;28;20083;-61
2023/02/08 09:35:58;;;;;;;44.83;25.23;;;26.20;2201.60;;;;;;5033567;28;20414;-60
2023/02/08 09:38:25;;;;;;;40.88;22.85;;;26.40;2201.60;;;;;;5033123;28;20028;-61
2023/02/08 09:41:32;;;;;;;59.17;33.63;;;26.50;2201.60;;;;;;5033341;28;20108;-60
2023/02/08 09:44:10;;;;;;;46.33;28.33;;;51.30;2227.20;;;;;;5033317;28;20376;-61
2023/02/08 09:46:39;;;;;;;59.90;36.58;;;51.30;2227.20;;;;;;5032949;28;20112;-61
2023/02/08 09:49:14;;;;;;;64.85;39.33;;;51.40;2227.20;;;;;;5033061;28;20022;-61
2023/02/08 09:51:51;;;;;;;61.20;36.70;;;51.20;2227.20;;;;;;5033095;28;20065;-60
2023/02/08 09:54:23;;;;;;;49.78;32.65;;;26.40;2201.60;;;;;;5032862;28;20041;-61
2023/02/08 09:56:50;;;;;;;55.40;31.48;;;26.30;2201.60;;;;;;5033089;28;20021;-61
2023/02/08 09:59:22;;;;;;;69.82;43.90;;;26.40;2201.60;;;;;;5032714;28;20383;-61
2023/02/08 10:01:50;;;;;;;60.13;35.42;;;26.50;2201.60;;;;;;5032728;28;20030;-61
2023/02/08 10:04:36;;;;;;;66.53;40.05;;;51.60;2227.20;;;;;;5032891;28;20357;-60
2023/02/08 10:07:02;;;;;;;67.38;41.15;;;51.80;2227.20;;;;;;5032714;28;20037;-60
2023/02/08 10:09:28;;;;;;;62.85;38.38;;;51.90;2227.20;;;;;;5032964;28;20033;-61
2023/02/08 10:11:57;;;;;;;80.45;49.35;;;77.00;2227.20;;;;;;5032721;28;20032;-61
2023/02/08 10:14:25;;;;;;;94.40;50.47;;;77.20;2227.20;;;;;;5035669;28;20013;-60
2023/02/08 10:17:24;;;;;;;86.70;50.72;;;77.40;2227.20;;;;;;5051481;28;20048;-61
2023/02/08 10:20:12;;;;;;;91.15;52.33;;;77.60;2227.20;;;;;;5014610;28;20033;-60
2023/02/08 10:23:22;;;;;;;109.75;67.72;;;77.70;2227.20;;;;;;5032352;28;20641;-61
2023/02/08 10:26:12;;;;;;;102.55;64.22;;;102.70;2227.20;;;;;;4994657;28;20045;-61
2023/02/08 10:29:03;;;;;;;74.72;42.85;;;102.80;2227.20;;;;;;5031469;28;20112;-61
2023/02/08 10:32:03;;;;;;;82.50;51.80;;;102.80;2227.20;;;;;;5032778;28;20432;-61
2023/02/08 10:34:50;;;;;;;80.60;50.63;;;102.90;2227.20;;;;;;5032488;28;20028;-60
2023/02/08 10:37:19;;;;;;;82.47;50.55;;;102.80;2227.20;;;;;;5028853;28;20479;-61
2023/02/08 10:39:46;;;;;;;88.45;54.28;;;102.60;2227.20;;;;;;5029855;28;20029;-61
2023/02/08 10:42:15;;;;;;;121.70;83.60;;;102.70;2227.20;;;;;;5048408;28;20024;-61
2023/02/08 10:44:53;;;;;;;84.43;52.00;;;102.90;2227.20;;;;;;5048847;28;20387;-60
2023/02/08 10:47:40;;;;;;;68.93;43.70;;;103.30;2227.20;;;;;;5046490;28;20498;-60
2023/02/08 10:50:18;;;;;;;80.95;48.10;;;128.10;2252.80;;;;;;5046684;28;20017;-60
2023/02/08 10:52:44;;;;;;;105.88;70.70;;;103.00;2227.20;;;;;;5046676;28;20045;-62
2023/02/08 10:55:18;;;;;;;98.93;60.67;;;102.90;2227.20;;;;;;5048535;28;20368;-61
2023/02/08 10:57:47;;;;;;;87.32;53.83;;;77.60;2227.20;;;;;;5048014;28;20111;-60
2023/02/08 11:00:25;;;;;;;81.28;47.08;;;102.70;2227.20;;;;;;5048200;28;20423;-61
2023/02/08 11:02:53;;;;;;;78.32;48.13;;;103.00;2227.20;;;;;;5047842;28;20383;-61
2023/02/08 11:05:30;;;;;;;82.38;54.75;;;103.20;2227.20;;;;;;5048587;28;20021;-60
2023/02/08 11:08:28;;;;;;;59.42;39.50;;;103.00;2227.20;;;;;;5045370;28;20463;-61
2023/02/08 11:10:59;;;;;;;85.75;55.97;;;128.00;2252.80;;;;;;5047655;28;20025;-61
2023/02/08 11:13:47;;;;;;;106.22;64.75;;;128.10;2252.80;;;;;;5047724;28;20503;-61
2023/02/08 11:16:24;;;;;;;123.15;80.35;;;128.00;2252.80;;;;;;5046558;28;20070;-61
2023/02/08 11:19:00;;;;;;;96.90;57.50;;;128.30;2252.80;;;;;;5046350;28;20021;-60
2023/02/08 11:21:35;;;;;;;105.47;69.07;;;103.00;2227.20;;;;;;5045609;28;20742;-60
2023/02/08 11:24:27;;;;;;;72.97;46.03;;;102.90;2227.20;;;;;;5047923;28;20043;-60
2023/02/08 11:26:55;;;;;;;69.72;42.58;;;102.70;2227.20;;;;;;5045981;28;20113;-62
2023/02/08 11:29:29;;;;;;;85.65;51.38;;;102.50;2227.20;;;;;;5047375;28;20406;-62
2023/02/08 11:31:59;;;;;;;83.70;49.88;;;77.60;2227.20;;;;;;5047435;28;20025;-62
2023/02/08 11:34:26;;;;;;;98.18;56.78;;;102.40;2227.20;;;;;;5047518;28;20025;-61
2023/02/08 11:36:52;;;;;;;63.92;39.05;;;77.30;2227.20;;;;;;5047831;28;20099;-60
2023/02/08 11:39:39;;;;;;;74.93;42.78;;;77.40;2227.20;;;;;;5047186;28;20025;-61
2023/02/08 11:42:05;;;;;;;64.28;34.78;;;102.50;2227.20;;;;;;5045425;28;20025;-61
2023/02/08 11:44:41;;;;;;;79.25;47.95;;;102.50;2227.20;;;;;;5049609;28;20048;-60
2023/02/08 11:47:09;;;;;;;67.45;43.72;;;102.60;2227.20;;;;;;5047742;28;20040;-61
2023/02/08 11:49:37;;;;;;;77.53;44.80;;;102.60;2227.20;;;;;;5049188;28;20017;-61
2023/02/08 11:52:05;;;;;;;78.70;50.92;;;102.40;2227.20;;;;;;5049050;28;20072;-60
2023/02/08 11:54:40;;;;;;;98.00;54.55;;;102.90;2227.20;;;;;;5050122;28;20108;-61
2023/02/08 11:57:23;;;;;;;70.40;44.70;;;103.30;2227.20;;;;;;5050641;28;20056;-61
2023/02/08 12:00:09;;;;;;;103.85;60.97;;;102.60;2227.20;;;;;;5050706;28;20025;-61
2023/02/08 12:02:39;;;;;;;79.75;45.33;;;103.10;2227.20;;;;;;5048983;28;20032;-61
2023/02/08 12:05:19;;;;;;;74.78;46.00;;;103.30;2227.20;;;;;;5048287;28;20025;-60
2023/02/08 12:07:51;;;;;;;85.60;45.70;;;102.70;2227.20;;;;;;5047952;28;20029;-61
2023/02/08 12:10:49;;;;;;;67.03;39.75;;;102.40;2227.20;;;;;;5048250;28;20126;-60
2023/02/08 12:13:33;;;;;;;69.55;43.70;;;102.50;2227.20;;;;;;5048073;28;20033;-61
2023/02/08 12:16:10;;;;;;;78.88;45.60;;;77.70;2227.20;;;;;;5047969;28;20029;-61
2023/02/08 12:19:03;;;;;;;68.60;42.80;;;77.60;2227.20;;;;;;5048370;28;20049;-61
2023/02/08 12:21:42;;;;;;;54.85;30.80;;;77.30;2227.20;;;;;;5048222;28;20471;-60
2023/02/08 12:24:29;;;;;;;78.50;47.35;;;77.00;2227.20;;;;;;5048129;28;20052;-61
2023/02/08 12:27:21;;;;;;;68.70;41.60;;;77.00;2227.20;;;;;;5047974;28;20479;-60
2023/02/08 12:29:57;;;;;;;66.75;38.67;;;77.00;2227.20;;;;;;5047678;28;20032;-61
2023/02/08 12:32:38;;;;;;;64.88;38.42;;;76.80;2227.20;;;;;;5047953;28;20030;-61